메인 페이지
METAR-TAF:

METAR-TAF

공항 :

롤랑 가로스 공항

생드니, 레위니옹

위도: 20-53S, 경도: 055-31E, 고도: 21m

현재 날씨관측

예보는 24분 전, 19:00시(UTC)에 발표되었습니다.
남남동9kt
온도 21°C
습도 64%
기압 1022 hPa
시정 10km 이상

METAR: FMEE 201900Z AUTO 15009KT 9999 NCD 21/14 Q1022 NOSIG

시각: 23:24 (19:24 UTC)

예보

예보는 2 시간 24분 전, 17:00시(UTC)에 발표되었습니다.
예보 대상 시간: 20일 18시부터 21일 24시까지 (UTC)
동남동10kt
시정 10km 이상
1500m 미만 상공 구름 및 적란운 없음
전환 중
21일 04시부터 21일 06시까지 (UTC)
15kt, 순간 최대 풍속 25kt
전환 중
21일 14시부터 21일 16시까지 (UTC)
동남동10kt

TAF: FMEE 201700Z 2018/2124 12010KT CAVOK BECMG 2104/2106 09015G25KT BECMG 2114/2116 12010KT

4,000개 이상의 공항 관측 자료 및 예보 (METAR 및 TAF 보고).

지도상에서 검색 가능한 기상관측소가 노란 점과 빨간 점으로 표시되어 있습니다.

기상관측소 명을 보려면 표시 위로 마우스를 이동하세요.

날씨 관측과 예보를 보려면 클릭하세요.

지도 변경 : 확대하려면 엑스 표시가 있는 녹색 버튼, 축소하려면 빼기 표시가 있는 녹색 버튼, 다음 페이지의 지도를 보려면 녹색 화살표를 클릭하세요.


METAR-TAF: